Terminal Aerodrome Forecast
Issued by NWS Paducah, KY

Home | Current Version | Previous Version | Graphics & Text | Print | Product List | Glossary On
Versions: 1 2 3 4 5 6 7 8 9 10 11 12 13 14 15
000
FTUS43 KPAH 171700
TAFEVV
TAF
KEVV 171725Z 1718/1818 VRB04KT P6SM BKN035
     FM172000 VRB03KT P6SM SCT040
     FM180600 00000KT 4SM BR BKN080
      TEMPO 1808/1812 2SM BR
     FM181400 06007KT P6SM SCT040=

USA.gov is the U.S. government's official web portal to all federal, state and local government web resources and services.